Time;durP1;ratioP1;P1;durP2;ratioP2;P2;SDS_P1;SDS_P2;PMS_P1;PMS_P2;Temp;Humidity;BMP_temperature;BMP_pressure;BME280_temperature;BME280_humidity;BME280_pressure;Samples;Min_cycle;Max_cycle;Signal;HPM_P1;HPM_P2
2021/05/13 00:01:55;;;;;;;3.03;0.80;;;17.00;99.90;;;;;;5026641;28;21214;-82
2021/05/13 00:04:22;;;;;;;3.60;0.90;;;16.90;99.90;;;;;;5014058;28;20405;-81
2021/05/13 00:06:49;;;;;;;4.22;1.15;;;17.00;99.90;;;;;;5022938;28;20894;-81
2021/05/13 00:09:16;;;;;;;6.68;1.20;;;17.10;99.90;;;;;;5024219;28;20837;-82
2021/05/13 00:11:46;;;;;;;3.55;1.10;;;17.20;99.90;;;;;;5027167;28;20455;-81
2021/05/13 00:14:16;;;;;;;2.15;0.90;;;17.30;99.90;;;;;;5019371;28;20867;-83
2021/05/13 00:16:45;;;;;;;5.72;1.10;;;17.30;99.90;;;;;;5014340;28;20426;-81
2021/05/13 00:19:14;;;;;;;4.72;1.17;;;17.40;99.90;;;;;;5017700;28;20474;-83
2021/05/13 00:21:43;;;;;;;6.70;1.17;;;17.50;99.90;;;;;;5013605;28;20387;-82
2021/05/13 00:24:12;;;;;;;2.78;1.00;;;17.50;99.90;;;;;;5015824;28;20401;-82
2021/05/13 00:26:47;;;;;;;4.17;1.40;;;17.50;99.90;;;;;;5020535;28;20393;-82
2021/05/13 00:29:24;;;;;;;5.65;1.38;;;17.50;99.90;;;;;;5029464;28;20555;-82
2021/05/13 00:31:51;;;;;;;3.75;1.35;;;17.50;99.90;;;;;;5001077;28;20943;-82
2021/05/13 00:34:19;;;;;;;3.33;1.30;;;17.40;99.90;;;;;;5020165;28;20917;-82
2021/05/13 00:36:46;;;;;;;4.55;1.10;;;17.40;99.90;;;;;;5018274;28;20436;-82
2021/05/13 00:39:13;;;;;;;2.45;0.93;;;17.50;99.90;;;;;;5004455;28;20399;-82
2021/05/13 00:41:40;;;;;;;4.22;1.02;;;17.50;99.90;;;;;;5016692;28;20391;-83
2021/05/13 00:44:08;;;;;;;5.78;1.27;;;17.50;99.90;;;;;;5023772;28;20409;-82
2021/05/13 00:46:36;;;;;;;4.53;1.17;;;17.50;99.90;;;;;;5012534;28;20403;-79
2021/05/13 00:49:11;;;;;;;4.70;0.95;;;17.60;99.90;;;;;;5007723;28;20580;-83
2021/05/13 00:51:38;;;;;;;6.38;1.23;;;17.70;99.90;;;;;;5017631;28;20386;-84
2021/05/13 00:54:05;;;;;;;3.70;1.00;;;17.80;99.90;;;;;;5002146;28;20470;-82
2021/05/13 00:56:33;;;;;;;4.63;1.27;;;17.90;99.90;;;;;;5019907;28;20815;-82
2021/05/13 00:59:10;;;;;;;6.05;0.93;;;18.00;99.90;;;;;;5017030;28;20397;-83
2021/05/13 01:04:10;;;;;;;5.78;1.00;;;17.90;99.90;;;;;;5017328;28;20387;-83
2021/05/13 01:06:38;;;;;;;3.05;1.08;;;17.90;99.90;;;;;;5000738;28;20402;-82
2021/05/13 01:09:10;;;;;;;3.47;0.90;;;18.00;99.90;;;;;;5005963;28;20771;-82
2021/05/13 01:11:42;;;;;;;4.57;0.75;;;18.00;99.90;;;;;;4994572;28;20387;-86
2021/05/13 01:14:20;;;;;;;2.70;0.98;;;18.00;99.90;;;;;;5011719;28;20396;-86
2021/05/13 01:16:58;;;;;;;3.75;1.08;;;18.10;99.90;;;;;;5020346;28;20455;-85
2021/05/13 01:19:25;;;;;;;2.28;0.82;;;18.10;99.90;;;;;;5018029;28;20433;-83
2021/05/13 01:21:52;;;;;;;2.13;0.88;;;18.10;99.90;;;;;;5018023;28;20397;-82
2021/05/13 01:24:20;;;;;;;4.75;0.93;;;18.20;99.90;;;;;;4999418;28;20411;-81
2021/05/13 01:26:48;;;;;;;2.28;0.80;;;18.20;99.90;;;;;;5022536;28;20440;-82
2021/05/13 01:29:19;;;;;;;3.17;0.95;;;18.20;99.90;;;;;;5019638;28;20408;-82
2021/05/13 01:31:46;;;;;;;4.57;1.03;;;18.30;99.90;;;;;;5007743;28;20398;-83
2021/05/13 01:34:13;;;;;;;1.90;0.88;;;18.20;99.90;;;;;;5016533;28;20889;-83
2021/05/13 01:36:41;;;;;;;2.70;0.80;;;18.20;99.90;;;;;;5015572;28;20377;-82
2021/05/13 01:39:10;;;;;;;6.22;1.15;;;18.20;99.90;;;;;;5001517;28;20807;-83
2021/05/13 01:41:38;;;;;;;4.25;1.02;;;18.30;99.90;;;;;;5023591;28;20409;-83
2021/05/13 01:44:06;;;;;;;2.00;0.80;;;18.30;99.90;;;;;;5010821;28;20488;-83
2021/05/13 01:46:34;;;;;;;2.87;0.90;;;18.40;99.90;;;;;;5026800;28;20447;-84
2021/05/13 01:49:02;;;;;;;2.47;0.70;;;18.40;99.90;;;;;;5001583;28;20437;-83
2021/05/13 01:51:28;;;;;;;1.83;0.80;;;18.50;99.90;;;;;;5016517;28;20386;-83
2021/05/13 01:53:55;;;;;;;2.47;0.90;;;18.50;99.90;;;;;;5019712;28;20465;-83
2021/05/13 01:56:23;;;;;;;2.20;0.75;;;18.60;99.90;;;;;;5006583;28;20393;-82
2021/05/13 01:58:50;;;;;;;3.10;0.77;;;18.60;99.90;;;;;;5031208;28;20900;-82
2021/05/13 02:01:17;;;;;;;2.33;0.65;;;18.60;99.90;;;;;;5031687;28;20397;-82
2021/05/13 02:03:47;;;;;;;3.50;0.65;;;18.70;99.90;;;;;;5001460;28;20914;-82
2021/05/13 02:06:14;;;;;;;4.95;0.75;;;18.80;99.90;;;;;;5015225;28;20402;-82
2021/05/13 02:08:41;;;;;;;2.13;0.60;;;18.80;99.90;;;;;;5018923;28;20472;-82
2021/05/13 02:11:08;;;;;;;2.05;0.68;;;18.90;99.90;;;;;;5011666;28;20390;-82
2021/05/13 02:13:35;;;;;;;1.02;0.40;;;18.90;99.90;;;;;;5027920;28;20413;-81
2021/05/13 02:16:02;;;;;;;1.23;0.50;;;18.90;99.90;;;;;;5016150;28;20410;-82
2021/05/13 02:18:29;;;;;;;1.45;0.55;;;19.10;99.90;;;;;;5023905;28;21112;-83
2021/05/13 02:20:56;;;;;;;2.97;0.60;;;19.10;99.90;;;;;;5014108;28;20413;-82
2021/05/13 02:23:23;;;;;;;1.20;0.60;;;19.20;99.90;;;;;;5026064;28;20400;-84
2021/05/13 02:25:50;;;;;;;2.13;0.50;;;19.20;99.90;;;;;;5009846;28;21287;-84
2021/05/13 02:28:18;;;;;;;0.90;0.50;;;19.30;99.90;;;;;;5015003;28;20403;-83
2021/05/13 02:30:46;;;;;;;2.28;0.50;;;19.40;99.90;;;;;;5013575;28;20385;-85
2021/05/13 02:33:13;;;;;;;2.13;0.43;;;19.40;99.90;;;;;;5028388;28;20401;-83
2021/05/13 02:35:40;;;;;;;2.83;0.85;;;19.50;99.90;;;;;;5007593;28;20449;-84
2021/05/13 02:38:07;;;;;;;3.33;0.60;;;19.60;99.90;;;;;;5005160;28;20956;-82
2021/05/13 02:40:34;;;;;;;3.10;0.60;;;19.60;99.90;;;;;;4998656;28;20425;-82
2021/05/13 02:43:03;;;;;;;2.70;0.68;;;19.50;99.90;;;;;;5006868;28;20401;-82
2021/05/13 02:45:30;;;;;;;1.37;0.60;;;19.50;99.90;;;;;;5019220;28;20390;-81
2021/05/13 02:47:58;;;;;;;2.53;0.57;;;19.40;99.90;;;;;;5027451;28;20401;-82
2021/05/13 02:50:26;;;;;;;1.20;0.52;;;19.50;99.90;;;;;;5012369;28;20812;-84
2021/05/13 02:52:53;;;;;;;4.88;0.50;;;19.50;99.90;;;;;;5021132;28;20387;-82
2021/05/13 02:55:20;;;;;;;2.15;0.40;;;19.50;99.90;;;;;;5017869;28;20768;-83
2021/05/13 02:57:49;;;;;;;1.20;0.40;;;19.60;99.90;;;;;;5019240;28;20474;-82
2021/05/13 03:00:26;;;;;;;2.08;0.70;;;19.60;99.90;;;;;;5003535;28;20468;-84
2021/05/13 03:02:53;;;;;;;3.20;0.52;;;19.70;99.90;;;;;;5006546;28;20412;-84
2021/05/13 03:05:25;;;;;;;1.80;0.60;;;19.70;99.90;;;;;;5023322;28;20381;-84
2021/05/13 03:07:55;;;;;;;2.45;0.57;;;19.70;99.90;;;;;;5003447;28;20387;-83
2021/05/13 03:10:31;;;;;;;1.33;0.70;;;19.80;99.90;;;;;;5022071;28;20393;-82
2021/05/13 03:12:59;;;;;;;2.58;0.60;;;19.80;99.90;;;;;;5029281;28;20397;-83
2021/05/13 03:15:26;;;;;;;1.27;0.50;;;20.00;99.90;;;;;;4996631;28;20888;-82
2021/05/13 03:17:53;;;;;;;3.22;0.60;;;20.00;99.90;;;;;;5001035;28;20417;-84
2021/05/13 03:20:24;;;;;;;2.60;0.60;;;20.00;99.90;;;;;;4994095;28;20372;-84
2021/05/13 03:22:56;;;;;;;4.22;0.80;;;19.90;99.90;;;;;;5009024;28;20455;-82
2021/05/13 03:25:32;;;;;;;0.55;0.40;;;20.00;99.90;;;;;;5010151;28;20410;-82
2021/05/13 03:28:09;;;;;;;1.67;0.52;;;20.10;99.90;;;;;;4986051;28;20422;-81
2021/05/13 03:30:43;;;;;;;2.60;0.60;;;20.10;99.90;;;;;;5011338;28;20478;-83
2021/05/13 03:33:11;;;;;;;2.67;0.60;;;20.10;99.90;;;;;;4999531;28;20409;-83
2021/05/13 03:35:39;;;;;;;1.90;0.40;;;20.10;99.90;;;;;;4999149;28;20424;-83
2021/05/13 03:38:07;;;;;;;3.53;1.00;;;20.00;99.90;;;;;;4980400;28;20431;-82
2021/05/13 03:40:35;;;;;;;1.83;0.50;;;20.10;99.90;;;;;;5005091;28;20866;-82
2021/05/13 03:43:03;;;;;;;2.00;0.40;;;20.10;99.90;;;;;;5002768;28;20470;-83
2021/05/13 03:45:30;;;;;;;2.53;0.60;;;20.00;99.90;;;;;;4997066;28;20391;-82
2021/05/13 03:48:02;;;;;;;2.78;0.60;;;20.10;99.90;;;;;;5005070;28;20400;-83
2021/05/13 03:50:33;;;;;;;1.17;0.52;;;20.20;99.90;;;;;;5009722;28;20410;-82
2021/05/13 03:53:02;;;;;;;2.30;0.50;;;20.10;99.90;;;;;;4981772;28;20453;-81
2021/05/13 03:55:29;;;;;;;0.90;0.50;;;20.20;99.90;;;;;;5001662;28;20895;-82
2021/05/13 03:57:57;;;;;;;3.63;0.50;;;20.30;99.90;;;;;;4986502;28;20826;-82
2021/05/13 04:00:47;;;;;;;2.85;0.60;;;20.20;99.90;;;;;;4978704;28;20407;-82
2021/05/13 04:03:14;;;;;;;2.47;0.70;;;20.30;99.90;;;;;;5007627;28;20406;-83
2021/05/13 04:05:42;;;;;;;2.72;0.82;;;20.30;99.90;;;;;;4989512;28;20433;-82
2021/05/13 04:08:09;;;;;;;4.22;0.75;;;20.20;99.90;;;;;;4989614;28;20404;-81
2021/05/13 04:10:37;;;;;;;2.30;0.60;;;20.20;99.90;;;;;;4983619;28;20488;-81
2021/05/13 04:13:07;;;;;;;1.05;0.50;;;20.10;99.90;;;;;;5002503;28;20442;-82
2021/05/13 04:15:34;;;;;;;1.80;0.80;;;20.10;99.90;;;;;;5004289;28;20410;-84
2021/05/13 04:18:01;;;;;;;2.55;0.52;;;20.10;99.90;;;;;;4998877;28;21108;-83
2021/05/13 04:20:29;;;;;;;2.20;0.60;;;20.10;99.90;;;;;;5010524;28;20533;-82
2021/05/13 04:22:56;;;;;;;1.20;0.57;;;20.10;99.90;;;;;;4998360;28;20450;-82
2021/05/13 04:25:23;;;;;;;1.60;0.50;;;20.10;99.90;;;;;;4994591;28;20399;-82
2021/05/13 04:27:50;;;;;;;0.55;0.43;;;20.10;99.90;;;;;;4989893;28;20410;-82
2021/05/13 04:30:17;;;;;;;1.02;0.50;;;20.10;99.90;;;;;;5002511;28;20399;-82
2021/05/13 04:32:44;;;;;;;2.10;0.50;;;20.10;99.90;;;;;;5000985;28;20438;-82
2021/05/13 04:35:12;;;;;;;2.35;0.82;;;20.00;99.90;;;;;;4998632;28;20426;-83
2021/05/13 04:37:39;;;;;;;1.98;0.73;;;20.10;99.90;;;;;;5007380;28;20449;-82
2021/05/13 04:40:07;;;;;;;4.88;0.60;;;20.10;99.90;;;;;;4990738;28;20916;-82
2021/05/13 04:42:34;;;;;;;1.95;0.70;;;20.10;99.90;;;;;;5004550;28;20921;-83
2021/05/13 04:45:01;;;;;;;1.50;0.80;;;20.10;99.90;;;;;;4988360;28;20771;-83
2021/05/13 04:47:46;;;;;;;1.65;0.50;;;20.00;99.90;;;;;;5001381;28;20376;-83
2021/05/13 04:50:14;;;;;;;1.42;0.60;;;20.00;99.90;;;;;;4984265;28;20427;-84
2021/05/13 04:52:41;;;;;;;1.30;0.50;;;20.00;99.90;;;;;;4983340;28;21187;-82
2021/05/13 04:55:09;;;;;;;1.45;0.60;;;20.00;99.90;;;;;;4986140;28;20391;-82
2021/05/13 04:57:39;;;;;;;1.88;0.60;;;20.00;99.90;;;;;;5004134;28;20798;-82
2021/05/13 05:00:11;;;;;;;1.80;0.80;;;20.00;99.90;;;;;;4991992;28;20392;-82
2021/05/13 05:02:38;;;;;;;0.85;0.60;;;20.00;99.90;;;;;;4998873;28;20403;-82
2021/05/13 05:05:09;;;;;;;2.00;0.85;;;19.90;99.90;;;;;;5009320;28;20421;-82
2021/05/13 05:07:36;;;;;;;3.03;0.80;;;19.90;99.90;;;;;;5007358;28;20403;-82
2021/05/13 05:10:03;;;;;;;3.80;0.77;;;19.90;99.90;;;;;;5006857;28;20811;-84
2021/05/13 05:12:30;;;;;;;1.83;0.68;;;19.80;99.90;;;;;;4985968;28;20461;-83
2021/05/13 05:14:58;;;;;;;2.35;0.95;;;19.80;99.90;;;;;;5011185;28;20470;-83
2021/05/13 05:17:25;;;;;;;1.80;0.85;;;19.80;99.90;;;;;;5008546;28;20397;-81
2021/05/13 05:19:52;;;;;;;0.80;0.80;;;19.70;99.90;;;;;;5021796;28;20401;-82
2021/05/13 05:22:19;;;;;;;2.23;1.00;;;19.70;99.90;;;;;;5022151;28;20463;-83
2021/05/13 05:24:46;;;;;;;2.67;1.05;;;19.70;99.90;;;;;;5007270;28;20436;-83
2021/05/13 05:27:13;;;;;;;3.50;0.90;;;19.70;99.90;;;;;;4999313;28;20825;-81
2021/05/13 05:29:40;;;;;;;2.78;0.95;;;19.70;99.90;;;;;;5001224;28;20898;-81
2021/05/13 05:32:07;;;;;;;0.90;0.82;;;19.70;99.90;;;;;;5027859;28;20478;-80
2021/05/13 05:34:34;;;;;;;3.30;1.20;;;19.70;99.90;;;;;;5024042;28;20394;-80
2021/05/13 05:37:01;;;;;;;2.10;0.98;;;19.60;99.90;;;;;;5004542;28;20395;-81
2021/05/13 05:39:28;;;;;;;1.92;1.02;;;19.70;99.90;;;;;;5020279;28;20472;-83
2021/05/13 05:41:55;;;;;;;2.20;1.08;;;19.60;99.90;;;;;;5006943;28;20430;-81
2021/05/13 05:44:23;;;;;;;1.08;1.00;;;19.60;99.90;;;;;;4997622;28;20411;-82
2021/05/13 05:46:51;;;;;;;2.10;0.90;;;19.50;99.90;;;;;;5020244;28;20429;-83
2021/05/13 05:49:18;;;;;;;1.70;1.20;;;19.50;99.90;;;;;;5025240;28;20401;-81
2021/05/13 05:51:45;;;;;;;3.00;1.23;;;19.50;99.90;;;;;;5023570;28;20884;-82
2021/05/13 05:54:12;;;;;;;3.35;1.10;;;19.40;99.90;;;;;;5025128;28;20416;-82
2021/05/13 05:56:40;;;;;;;1.92;1.05;;;19.40;99.90;;;;;;5017382;28;20395;-82
2021/05/13 05:59:07;;;;;;;2.28;1.10;;;19.40;99.90;;;;;;5007934;28;20426;-81
2021/05/13 06:01:37;;;;;;;2.80;1.20;;;19.40;99.90;;;;;;5027310;28;20390;-81
2021/05/13 06:04:06;;;;;;;2.90;1.20;;;19.40;99.90;;;;;;5010004;28;20405;-81
2021/05/13 06:06:33;;;;;;;1.63;1.20;;;19.30;99.90;;;;;;5009189;28;20456;-82
2021/05/13 06:08:59;;;;;;;4.63;1.17;;;19.30;99.90;;;;;;5008599;28;20418;-82
2021/05/13 06:11:26;;;;;;;1.60;1.20;;;19.30;99.90;;;;;;5008495;28;20397;-82
2021/05/13 06:13:53;;;;;;;2.35;1.10;;;19.20;99.90;;;;;;5028749;28;20479;-82
2021/05/13 06:16:20;;;;;;;3.28;1.40;;;19.20;99.90;;;;;;5028305;28;20462;-82
2021/05/13 06:18:56;;;;;;;1.30;1.20;;;19.10;99.90;;;;;;4998951;28;20417;-81
2021/05/13 06:21:24;;;;;;;3.20;1.33;;;19.10;99.90;;;;;;5016380;28;20381;-82
2021/05/13 06:23:56;;;;;;;1.70;1.60;;;19.00;99.90;;;;;;5002194;28;20937;-82
2021/05/13 06:26:26;;;;;;;2.00;1.70;;;18.90;99.90;;;;;;5007595;28;20920;-82
2021/05/13 06:28:53;;;;;;;3.00;1.30;;;18.80;99.90;;;;;;4996016;28;20401;-83
2021/05/13 06:31:20;;;;;;;3.05;1.40;;;18.80;99.90;;;;;;4994998;28;20945;-82
2021/05/13 06:33:47;;;;;;;2.13;1.48;;;18.70;99.90;;;;;;5012397;28;20867;-82
2021/05/13 06:36:15;;;;;;;2.22;1.48;;;18.70;99.90;;;;;;4991037;28;20387;-81
2021/05/13 06:38:44;;;;;;;1.92;1.33;;;18.60;99.90;;;;;;5008375;28;20414;-81
2021/05/13 06:41:12;;;;;;;2.60;1.65;;;18.50;99.90;;;;;;5016615;28;20390;-82
2021/05/13 06:43:39;;;;;;;2.10;1.50;;;18.40;99.90;;;;;;5010114;28;20422;-82
2021/05/13 06:46:06;;;;;;;7.25;1.83;;;18.30;99.90;;;;;;5029774;28;20473;-84
2021/05/13 06:48:34;;;;;;;2.35;1.55;;;18.20;99.90;;;;;;5011102;28;20385;-82
2021/05/13 06:51:02;;;;;;;3.65;1.73;;;18.10;99.90;;;;;;5011606;28;21213;-82
2021/05/13 06:53:29;;;;;;;2.22;1.55;;;18.00;99.90;;;;;;5011967;28;20383;-81
2021/05/13 06:55:56;;;;;;;2.50;1.60;;;18.00;99.90;;;;;;5010959;28;20375;-83
2021/05/13 06:58:23;;;;;;;3.40;1.65;;;17.90;99.90;;;;;;5011670;28;20391;-83
2021/05/13 07:00:50;;;;;;;3.65;1.60;;;17.80;99.90;;;;;;5015919;28;20409;-85
2021/05/13 07:03:18;;;;;;;2.95;1.55;;;17.70;99.90;;;;;;5036335;28;20917;-84
2021/05/13 07:05:45;;;;;;;5.07;1.60;;;17.60;99.90;;;;;;5022709;28;20387;-84
2021/05/13 07:08:12;;;;;;;2.85;1.63;;;17.60;99.90;;;;;;5011462;28;20390;-84
2021/05/13 07:10:40;;;;;;;4.28;1.92;;;17.50;99.90;;;;;;5027450;28;20806;-82
2021/05/13 07:13:07;;;;;;;3.22;2.08;;;17.50;99.90;;;;;;5027461;28;20402;-82
2021/05/13 07:15:34;;;;;;;2.03;1.77;;;17.30;99.90;;;;;;4998919;28;20399;-82
2021/05/13 07:18:01;;;;;;;3.78;1.75;;;17.20;99.90;;;;;;5011867;28;20450;-81
2021/05/13 07:20:30;;;;;;;2.90;1.35;;;17.10;99.90;;;;;;5023206;28;20387;-81
2021/05/13 07:22:57;;;;;;;3.97;1.60;;;17.10;99.90;;;;;;5014533;28;20411;-82
2021/05/13 07:25:25;;;;;;;2.60;1.50;;;17.00;99.90;;;;;;5000432;28;21188;-82
2021/05/13 07:27:52;;;;;;;2.38;1.52;;;17.00;99.90;;;;;;5022010;28;20944;-83
2021/05/13 07:30:19;;;;;;;3.67;1.50;;;17.00;99.90;;;;;;5013533;28;20769;-83
2021/05/13 07:32:47;;;;;;;5.03;1.88;;;16.90;99.90;;;;;;5021198;28;20447;-81
2021/05/13 07:35:16;;;;;;;2.50;1.80;;;16.90;99.90;;;;;;5031216;28;20373;-83
2021/05/13 07:37:44;;;;;;;4.78;1.83;;;16.80;99.90;;;;;;5018479;28;20391;-83
2021/05/13 07:40:12;;;;;;;2.72;1.58;;;16.80;99.90;;;;;;5021719;28;20880;-83
2021/05/13 07:42:39;;;;;;;2.35;1.73;;;16.80;99.90;;;;;;5000530;28;20393;-83
2021/05/13 07:45:07;;;;;;;1.98;1.70;;;16.80;99.90;;;;;;5029402;28;20385;-83
2021/05/13 07:47:38;;;;;;;2.83;1.30;;;16.80;99.90;;;;;;5014223;28;20739;-82
2021/05/13 07:50:24;;;;;;;3.22;1.52;;;16.80;99.90;;;;;;5025755;28;20489;-82
2021/05/13 07:52:52;;;;;;;2.00;1.67;;;16.90;99.90;;;;;;5025466;28;20470;-83
2021/05/13 07:55:19;;;;;;;4.43;1.58;;;17.00;99.90;;;;;;5011621;28;20432;-86
2021/05/13 07:57:47;;;;;;;2.08;1.90;;;17.00;99.90;;;;;;5034987;28;20389;-82
2021/05/13 08:00:15;;;;;;;3.20;2.13;;;17.00;99.90;;;;;;5025514;28;20430;-83
2021/05/13 08:02:42;;;;;;;2.80;2.05;;;16.80;99.90;;;;;;5013131;28;20403;-82
2021/05/13 08:05:12;;;;;;;3.97;2.40;;;16.70;99.90;;;;;;5024524;28;20401;-84
2021/05/13 08:07:39;;;;;;;4.03;2.38;;;16.60;99.90;;;;;;5025608;28;20394;-83
2021/05/13 08:10:08;;;;;;;3.15;2.10;;;16.40;99.90;;;;;;5024622;28;21192;-84
2021/05/13 08:12:35;;;;;;;2.42;2.17;;;16.40;99.90;;;;;;5010461;28;20383;-85
2021/05/13 08:15:08;;;;;;;2.53;2.28;;;16.20;99.90;;;;;;5022927;28;20795;-82
2021/05/13 08:17:36;;;;;;;1.98;1.88;;;16.10;99.90;;;;;;5011304;28;20391;-84
2021/05/13 08:20:04;;;;;;;3.50;2.00;;;16.00;99.90;;;;;;5012337;28;20405;-84
2021/05/13 08:22:31;;;;;;;3.67;2.00;;;15.90;99.90;;;;;;5029760;28;20429;-82
2021/05/13 08:24:59;;;;;;;4.03;1.92;;;15.90;99.90;;;;;;5026974;28;20466;-85
2021/05/13 08:27:26;;;;;;;3.42;2.00;;;15.90;99.90;;;;;;5016177;28;20405;-80
2021/05/13 08:29:53;;;;;;;3.83;2.00;;;15.90;99.90;;;;;;5019524;28;20391;-80
2021/05/13 08:32:20;;;;;;;3.63;2.30;;;15.90;99.90;;;;;;5015848;28;20454;-82
2021/05/13 08:34:47;;;;;;;5.07;2.60;;;15.80;99.90;;;;;;4996644;28;20386;-82
2021/05/13 08:37:14;;;;;;;4.25;2.70;;;15.80;99.90;;;;;;5013004;28;20390;-82
2021/05/13 08:39:41;;;;;;;5.18;2.72;;;15.80;99.90;;;;;;5013762;28;20428;-82
2021/05/13 08:42:08;;;;;;;4.65;2.90;;;15.80;99.90;;;;;;5016479;28;20391;-82
2021/05/13 08:44:36;;;;;;;2.73;2.20;;;15.80;99.90;;;;;;5012996;28;20406;-83
2021/05/13 08:47:03;;;;;;;4.80;2.20;;;15.80;99.90;;;;;;5022512;28;20475;-84
2021/05/13 08:49:30;;;;;;;4.55;2.05;;;15.80;99.90;;;;;;5014635;28;20408;-83
2021/05/13 08:51:58;;;;;;;2.90;1.80;;;15.80;99.90;;;;;;4991588;28;20387;-83
2021/05/13 08:54:26;;;;;;;5.85;2.20;;;15.80;99.90;;;;;;4991973;28;20411;-83
2021/05/13 08:56:52;;;;;;;2.60;1.83;;;15.80;99.90;;;;;;5011118;28;20445;-84
2021/05/13 08:59:20;;;;;;;2.50;1.60;;;15.70;99.90;;;;;;5013710;28;20422;-85
2021/05/13 09:02:00;;;;;;;3.03;1.65;;;15.60;99.90;;;;;;5014987;28;20411;-85
2021/05/13 09:04:48;;;;;;;3.15;1.65;;;15.60;99.90;;;;;;5008461;28;20403;-85
2021/05/13 09:07:32;;;;;;;2.30;1.55;;;15.60;99.90;;;;;;5008722;28;20383;-85
2021/05/13 09:10:13;;;;;;;2.33;1.70;;;15.50;99.90;;;;;;5009141;28;20502;-85
2021/05/13 09:12:49;;;;;;;4.50;1.70;;;15.50;99.90;;;;;;5007109;28;20747;-85
2021/05/13 09:15:27;;;;;;;2.83;1.38;;;15.40;99.90;;;;;;4989700;28;20458;-85
2021/05/13 09:18:00;;;;;;;3.35;1.63;;;15.40;99.90;;;;;;5007141;28;20444;-85
2021/05/13 09:20:28;;;;;;;3.20;1.70;;;15.30;99.90;;;;;;5017256;28;20410;-85
2021/05/13 09:23:20;;;;;;;3.67;1.60;;;15.30;99.90;;;;;;5000096;28;20409;-85
2021/05/13 09:26:05;;;;;;;2.35;1.50;;;15.20;99.90;;;;;;5025803;28;20805;-86
2021/05/13 09:28:33;;;;;;;1.88;1.42;;;15.10;99.90;;;;;;4989241;28;20489;-84
2021/05/13 09:31:00;;;;;;;4.18;1.30;;;15.10;99.90;;;;;;5005066;28;20385;-82
2021/05/13 09:33:42;;;;;;;4.53;1.13;;;15.20;99.90;;;;;;5026899;28;20473;-85
2021/05/13 09:36:23;;;;;;;3.95;1.35;;;15.10;99.90;;;;;;5017001;28;20881;-84
2021/05/13 09:38:50;;;;;;;1.98;1.50;;;15.20;99.90;;;;;;5017903;28;20380;-85
2021/05/13 09:41:38;;;;;;;3.83;1.50;;;15.20;99.90;;;;;;5022237;28;20387;-85
2021/05/13 09:44:43;;;;;;;1.88;1.08;;;15.20;99.90;;;;;;5010302;28;20406;-85
2021/05/13 09:47:16;;;;;;;1.75;1.27;;;15.20;99.90;;;;;;5007070;28;20866;-84
2021/05/13 09:50:05;;;;;;;1.65;1.02;;;15.20;99.90;;;;;;4989053;28;20391;-85
2021/05/13 09:52:48;;;;;;;2.28;1.48;;;15.20;99.90;;;;;;4990360;28;20409;-84
2021/05/13 09:55:15;;;;;;;1.97;1.30;;;15.20;99.90;;;;;;4988887;28;20898;-84
2021/05/13 09:57:49;;;;;;;3.63;1.40;;;15.20;99.90;;;;;;4989260;28;20383;-85
2021/05/13 10:00:35;;;;;;;4.03;1.60;;;15.10;99.90;;;;;;5010670;28;20395;-84
2021/05/13 10:03:09;;;;;;;5.80;1.48;;;15.10;99.90;;;;;;4993784;28;20417;-84
2021/05/13 10:05:40;;;;;;;3.92;2.10;;;15.10;99.90;;;;;;4990465;28;20391;-84
2021/05/13 10:08:08;;;;;;;3.92;2.15;;;15.10;99.90;;;;;;4983237;28;20895;-86
2021/05/13 10:10:35;;;;;;;5.70;1.98;;;15.10;99.90;;;;;;5007725;28;20925;-82
2021/05/13 10:13:05;;;;;;;4.03;1.95;;;15.10;99.90;;;;;;4997526;28;20397;-85
2021/05/13 10:15:32;;;;;;;4.77;2.10;;;15.10;99.90;;;;;;5006710;28;20406;-86
2021/05/13 10:18:05;;;;;;;4.00;1.95;;;15.10;99.90;;;;;;5012414;28;20903;-85
2021/05/13 10:20:32;;;;;;;3.03;1.63;;;15.20;99.90;;;;;;5011653;28;20393;-84
2021/05/13 10:23:00;;;;;;;2.37;1.73;;;15.20;99.90;;;;;;5016683;28;20453;-86
2021/05/13 10:25:30;;;;;;;3.77;1.50;;;15.20;99.90;;;;;;5008134;28;21164;-85
2021/05/13 10:28:02;;;;;;;4.20;1.65;;;15.30;99.90;;;;;;5026880;28;20390;-83
2021/05/13 10:30:35;;;;;;;2.97;1.80;;;15.30;99.90;;;;;;4994659;28;20383;-85
2021/05/13 10:33:19;;;;;;;1.80;1.43;;;15.40;99.90;;;;;;5029740;28;20941;-85
2021/05/13 10:36:06;;;;;;;3.50;1.45;;;15.30;99.90;;;;;;5021625;28;20391;-85
2021/05/13 10:38:46;;;;;;;3.95;1.55;;;15.30;99.90;;;;;;5020162;28;20470;-85
2021/05/13 10:41:33;;;;;;;4.50;1.30;;;15.40;99.90;;;;;;5015152;28;20419;-84
2021/05/13 10:44:20;;;;;;;3.00;1.30;;;15.40;99.90;;;;;;5015011;28;20411;-84
2021/05/13 10:46:57;;;;;;;1.55;1.20;;;15.30;99.90;;;;;;5011941;28;20383;-84
2021/05/13 10:49:25;;;;;;;2.90;1.20;;;15.40;99.90;;;;;;5001661;28;20448;-85
2021/05/13 10:51:57;;;;;;;4.07;1.30;;;15.30;99.90;;;;;;5023667;28;20375;-86
2021/05/13 10:54:30;;;;;;;2.75;1.20;;;15.30;99.90;;;;;;5011448;28;20750;-85
2021/05/13 10:57:17;;;;;;;2.28;1.10;;;15.20;99.90;;;;;;5025290;28;20385;-84
2021/05/13 11:00:09;;;;;;;3.47;1.40;;;15.20;99.90;;;;;;5021729;28;20460;-84
2021/05/13 11:02:41;;;;;;;1.77;1.02;;;15.10;99.90;;;;;;5006243;28;20946;-85
2021/05/13 11:05:30;;;;;;;2.40;1.27;;;15.10;99.90;;;;;;5007530;28;20511;-82
2021/05/13 11:08:08;;;;;;;1.87;1.10;;;15.10;99.90;;;;;;5032624;28;20382;-82
2021/05/13 11:10:50;;;;;;;1.73;1.00;;;15.00;99.90;;;;;;5000524;28;20399;-82
2021/05/13 11:13:18;;;;;;;2.30;1.20;;;14.90;99.90;;;;;;5011251;28;20382;-84
2021/05/13 11:15:52;;;;;;;1.50;1.30;;;14.90;99.90;;;;;;5028853;28;21063;-85
2021/05/13 11:18:26;;;;;;;4.00;1.10;;;14.90;99.90;;;;;;5010918;28;20382;-82
2021/05/13 11:20:59;;;;;;;1.85;1.20;;;14.90;99.90;;;;;;4995588;28;20383;-83
2021/05/13 11:23:32;;;;;;;1.08;0.98;;;15.00;99.90;;;;;;5005248;28;20800;-84
2021/05/13 11:26:15;;;;;;;2.78;1.00;;;14.90;99.90;;;;;;5018159;28;20389;-83
2021/05/13 11:28:45;;;;;;;1.60;1.10;;;14.90;99.90;;;;;;5019886;28;20399;-83
2021/05/13 11:31:18;;;;;;;3.58;1.20;;;14.90;99.90;;;;;;5012849;28;20387;-83
2021/05/13 11:33:52;;;;;;;3.10;1.25;;;14.90;99.90;;;;;;5011065;28;21019;-83
2021/05/13 11:36:25;;;;;;;1.77;1.10;;;14.90;99.90;;;;;;5005269;28;20530;-84
2021/05/13 11:38:58;;;;;;;1.20;1.10;;;14.80;99.90;;;;;;4998673;28;20414;-84
2021/05/13 11:41:26;;;;;;;1.23;0.93;;;14.80;99.90;;;;;;5015222;28;20404;-84
2021/05/13 11:43:53;;;;;;;1.77;0.98;;;14.90;99.90;;;;;;5028294;28;20409;-83
2021/05/13 11:46:23;;;;;;;1.85;1.10;;;14.80;99.90;;;;;;5028421;28;20369;-83
2021/05/13 11:48:52;;;;;;;1.73;0.93;;;14.80;99.90;;;;;;5026885;28;20424;-82
2021/05/13 11:51:29;;;;;;;3.92;0.90;;;14.80;99.90;;;;;;4990646;28;20754;-82
2021/05/13 11:54:01;;;;;;;3.30;1.20;;;14.80;99.90;;;;;;5008437;28;20466;-83
2021/05/13 11:56:30;;;;;;;1.67;0.80;;;14.80;99.90;;;;;;4993096;28;20475;-83
2021/05/13 11:58:59;;;;;;;2.25;1.15;;;14.70;99.90;;;;;;5012400;28;20392;-83
2021/05/13 12:01:36;;;;;;;1.80;0.85;;;14.70;99.90;;;;;;5002547;28;20395;-84
2021/05/13 12:04:03;;;;;;;3.00;0.93;;;14.70;99.90;;;;;;4994305;28;20926;-84
2021/05/13 12:06:41;;;;;;;1.80;0.88;;;14.70;99.90;;;;;;5005185;28;20390;-86
2021/05/13 12:09:08;;;;;;;1.40;0.85;;;14.60;99.90;;;;;;4993450;28;20398;-84
2021/05/13 12:11:37;;;;;;;2.90;1.10;;;14.50;99.90;;;;;;5012591;28;20393;-83
2021/05/13 12:14:09;;;;;;;1.93;0.90;;;14.50;99.90;;;;;;5000347;28;20393;-82
2021/05/13 12:16:37;;;;;;;2.50;1.05;;;14.40;99.90;;;;;;5023629;28;20399;-83
2021/05/13 12:19:09;;;;;;;3.78;1.25;;;14.40;99.90;;;;;;5016020;28;20996;-83
2021/05/13 12:21:39;;;;;;;1.20;1.10;;;14.30;99.90;;;;;;5018169;28;20433;-83
2021/05/13 12:24:08;;;;;;;1.13;1.10;;;14.30;99.90;;;;;;5022631;28;20995;-84
2021/05/13 12:26:38;;;;;;;1.20;1.10;;;14.30;99.90;;;;;;5025214;28;20412;-84
2021/05/13 12:29:06;;;;;;;2.92;1.23;;;14.30;99.90;;;;;;5015485;28;20909;-84
2021/05/13 12:31:39;;;;;;;1.48;1.00;;;14.20;99.90;;;;;;5001420;28;20433;-84
2021/05/13 12:34:07;;;;;;;1.52;1.00;;;14.20;99.90;;;;;;5018196;28;20401;-84
2021/05/13 12:36:35;;;;;;;3.07;1.13;;;14.20;99.90;;;;;;4995982;28;20465;-83
2021/05/13 12:39:03;;;;;;;1.23;1.10;;;14.10;99.90;;;;;;5018969;28;20903;-83
2021/05/13 12:41:30;;;;;;;2.55;1.33;;;14.10;99.90;;;;;;5002205;28;20480;-83
2021/05/13 12:44:17;;;;;;;3.08;1.38;;;14.10;99.90;;;;;;4999655;28;20849;-83
2021/05/13 12:46:46;;;;;;;1.52;1.27;;;14.00;99.90;;;;;;5015980;28;20423;-82
2021/05/13 12:49:24;;;;;;;2.60;1.10;;;13.90;99.90;;;;;;5016829;28;20761;-83
2021/05/13 12:52:09;;;;;;;1.10;1.00;;;13.90;99.90;;;;;;5015675;28;20433;-84
2021/05/13 12:54:41;;;;;;;1.33;1.20;;;13.90;99.90;;;;;;5007029;28;20407;-83
2021/05/13 12:57:12;;;;;;;3.22;1.20;;;13.90;99.90;;;;;;5019378;28;20398;-83
2021/05/13 12:59:54;;;;;;;3.00;1.15;;;13.80;99.90;;;;;;5019196;28;21154;-84
2021/05/13 13:02:27;;;;;;;2.30;1.33;;;13.80;99.90;;;;;;5019693;28;21187;-83
2021/05/13 13:04:56;;;;;;;3.50;1.50;;;13.80;99.90;;;;;;5021946;28;20457;-83
2021/05/13 13:07:43;;;;;;;2.00;1.02;;;13.70;99.90;;;;;;5002007;28;20410;-82